Time;durP1;ratioP1;P1;durP2;ratioP2;P2;SDS_P1;SDS_P2;PMS_P1;PMS_P2;Temp;Humidity;BMP_temperature;BMP_pressure;BME280_temperature;BME280_humidity;BME280_pressure;Samples;Min_cycle;Max_cycle;Signal;HPM_P1;HPM_P2
2021/10/03 00:02:30;;;;;;;4.72;4.20;;;18.50;61.30;;;18.58;50.27;96728.66;5047311;28;20355;-37
2021/10/03 00:05:01;;;;;;;3.47;2.80;;;18.50;60.70;;;18.57;49.86;96728.88;5047254;28;20064;-37
2021/10/03 00:07:31;;;;;;;5.32;3.25;;;18.60;59.70;;;18.60;49.63;96731.13;5047091;28;20059;-37
2021/10/03 00:09:59;;;;;;;4.68;3.50;;;18.60;59.80;;;18.60;49.37;96734.63;5048430;28;20382;-37
2021/10/03 00:12:27;;;;;;;4.90;3.00;;;18.60;59.30;;;18.64;49.46;96732.28;5045943;28;20283;-37
2021/10/03 00:14:55;;;;;;;3.65;2.85;;;18.60;59.30;;;18.64;49.09;96734.97;5048144;28;20060;-37
2021/10/03 00:17:23;;;;;;;3.92;2.88;;;18.60;58.80;;;18.64;48.72;96735.78;5047675;28;20055;-37
2021/10/03 00:19:51;;;;;;;3.08;2.70;;;18.70;58.50;;;18.67;48.40;96738.03;5048890;28;20397;-37
2021/10/03 00:22:19;;;;;;;4.35;2.95;;;18.70;58.10;;;18.67;48.16;96740.72;5047860;28;20048;-37
2021/10/03 00:24:47;;;;;;;4.43;2.97;;;18.80;57.70;;;18.69;48.05;96735.91;5062690;28;20377;-37
2021/10/03 00:27:16;;;;;;;4.57;3.25;;;18.80;57.60;;;18.74;48.14;96742.47;5046270;28;20060;-37
2021/10/03 00:29:44;;;;;;;4.97;3.78;;;18.80;57.50;;;18.76;47.91;96732.28;5046784;28;20063;-37
2021/10/03 00:32:15;;;;;;;5.20;3.20;;;18.80;57.30;;;18.79;47.84;96732.63;5046421;28;20049;-37
2021/10/03 00:34:43;;;;;;;4.43;2.85;;;18.90;57.30;;;18.83;47.92;96722.22;5046399;28;20045;-37
2021/10/03 00:37:11;;;;;;;6.03;2.95;;;18.90;57.30;;;18.85;47.66;96723.63;5047421;28;20065;-37
2021/10/03 00:39:38;;;;;;;4.13;2.95;;;18.90;57.20;;;18.87;47.60;96736.88;5047382;28;20226;-37
2021/10/03 00:42:06;;;;;;;3.30;2.60;;;18.90;57.10;;;18.89;47.40;96727.47;5046151;28;20057;-37
2021/10/03 00:44:34;;;;;;;5.78;3.10;;;18.90;56.80;;;18.93;47.51;96727.84;5046294;28;20053;-37
2021/10/03 00:47:03;;;;;;;4.57;3.05;;;19.00;57.00;;;18.95;47.86;96714.94;5046546;28;20086;-37
2021/10/03 00:49:34;;;;;;;4.22;2.80;;;19.00;57.50;;;18.96;47.80;96721.13;5047879;28;20403;-37
2021/10/03 00:52:07;;;;;;;4.82;2.85;;;19.00;57.40;;;18.95;47.62;96724.91;5046748;28;20063;-37
2021/10/03 00:54:36;;;;;;;3.90;3.00;;;19.00;57.10;;;18.95;47.76;96711.44;5046550;28;20049;-37
2021/10/03 00:57:04;;;;;;;3.45;2.65;;;18.90;57.00;;;18.94;47.07;96710.63;5045713;28;20049;-37
2021/10/03 00:59:34;;;;;;;3.72;2.95;;;19.00;56.50;;;18.96;47.10;96704.97;5063081;28;20064;-37
2021/10/03 01:02:03;;;;;;;4.68;3.13;;;19.00;56.20;;;18.97;46.88;96703.91;5046187;28;20063;-37
2021/10/03 01:04:31;;;;;;;3.25;2.67;;;19.00;56.10;;;18.99;46.79;96712.59;5046422;28;20059;-37
2021/10/03 01:06:59;;;;;;;4.57;2.85;;;19.00;56.10;;;18.99;46.67;96702.59;5045933;28;20056;-37
2021/10/03 01:09:27;;;;;;;3.90;3.35;;;19.00;56.00;;;19.02;46.76;96695.94;5046405;28;20075;-37
2021/10/03 01:11:56;;;;;;;4.35;3.10;;;19.00;56.10;;;19.02;46.93;96693.25;5046520;28;20055;-37
2021/10/03 01:14:24;;;;;;;3.85;3.03;;;19.00;56.10;;;19.00;46.91;96690.78;5047589;28;20094;-37
2021/10/03 01:16:52;;;;;;;4.25;3.38;;;19.00;56.20;;;19.00;47.13;96690.78;5046789;28;20063;-37
2021/10/03 01:19:20;;;;;;;4.10;3.35;;;19.00;56.50;;;18.95;47.50;96689.84;5046650;28;20067;-37
2021/10/03 01:21:48;;;;;;;3.97;3.08;;;19.00;56.90;;;18.92;47.56;96680.38;5045934;28;20052;-37
2021/10/03 01:24:16;;;;;;;9.10;3.67;;;19.00;57.10;;;18.91;47.75;96686.00;5044768;28;20374;-37
2021/10/03 01:26:44;;;;;;;4.97;3.40;;;18.90;57.40;;;18.87;47.98;96681.06;5045902;28;20455;-37
2021/10/03 01:29:12;;;;;;;4.30;3.40;;;18.90;57.80;;;18.84;48.50;96680.72;5046267;28;20049;-37
2021/10/03 01:31:40;;;;;;;5.15;3.70;;;18.80;58.50;;;18.81;48.66;96683.91;5044899;28;20056;-37
2021/10/03 01:34:08;;;;;;;4.60;3.35;;;18.70;58.80;;;18.77;48.86;96674.63;5045264;28;20067;-37
2021/10/03 01:36:36;;;;;;;5.32;4.00;;;18.70;59.20;;;18.74;48.97;96670.50;5046613;28;20057;-37
2021/10/03 01:39:04;;;;;;;5.28;3.50;;;18.60;60.10;;;18.71;49.05;96668.28;5046367;28;20274;-37
2021/10/03 01:41:32;;;;;;;4.72;3.40;;;18.70;59.40;;;18.67;49.15;96667.94;5046624;28;20053;-37
2021/10/03 01:44:00;;;;;;;4.85;3.47;;;18.60;59.60;;;18.64;49.17;96657.63;5046208;28;20359;-37
2021/10/03 01:46:28;;;;;;;4.93;3.55;;;18.50;59.80;;;18.60;49.31;96664.53;5044524;28;20067;-37
2021/10/03 01:48:56;;;;;;;4.78;3.70;;;18.50;59.90;;;18.58;49.25;96663.97;5046545;28;20052;-37
2021/10/03 01:51:25;;;;;;;4.57;3.70;;;18.50;59.80;;;18.56;49.26;96651.78;5044339;28;20057;-37
2021/10/03 01:53:58;;;;;;;4.10;3.33;;;18.50;59.80;;;18.55;49.34;96659.03;5045314;28;20054;-37
2021/10/03 01:56:28;;;;;;;5.30;3.25;;;18.40;59.80;;;18.53;49.39;96647.66;5046581;28;20067;-37
2021/10/03 01:59:02;;;;;;;5.00;4.18;;;18.40;60.00;;;18.52;49.29;96651.44;5044109;28;20263;-37
2021/10/03 02:01:43;;;;;;;7.75;3.78;;;18.40;60.00;;;18.50;49.39;96643.59;5045820;28;20059;-37
2021/10/03 02:04:22;;;;;;;4.45;3.28;;;18.40;59.80;;;18.49;49.33;96646.50;5044885;28;20052;-37
2021/10/03 02:06:55;;;;;;;3.92;3.20;;;18.40;59.90;;;18.47;49.21;96640.53;5046972;28;20063;-37
2021/10/03 02:09:26;;;;;;;4.88;3.80;;;18.40;59.80;;;18.46;49.34;96630.81;5045582;28;20247;-37
2021/10/03 02:12:00;;;;;;;4.28;3.47;;;18.40;59.90;;;18.46;49.30;96636.22;5046285;28;20052;-37
2021/10/03 02:14:31;;;;;;;4.25;3.22;;;18.40;59.70;;;18.42;49.25;96640.44;5045488;28;20215;-37
2021/10/03 02:17:00;;;;;;;4.00;3.30;;;18.30;59.70;;;18.39;49.24;96635.50;5046001;28;20055;-37
2021/10/03 02:19:30;;;;;;;4.55;3.38;;;18.30;59.70;;;18.37;49.36;96651.09;5046121;28;20045;-37
2021/10/03 02:22:00;;;;;;;4.38;3.63;;;18.20;59.80;;;18.32;49.33;96638.34;5044566;28;20083;-37
2021/10/03 02:24:28;;;;;;;4.18;3.42;;;18.20;59.90;;;18.32;49.33;96632.94;5044938;28;20053;-37
2021/10/03 02:26:56;;;;;;;4.25;3.25;;;18.20;59.80;;;18.32;49.10;96626.72;5045388;28;20071;-37
2021/10/03 02:29:24;;;;;;;6.10;3.38;;;18.20;59.60;;;18.34;49.25;96625.44;5044604;28;20152;-37
2021/10/03 02:31:56;;;;;;;5.00;2.90;;;18.30;59.50;;;18.35;49.24;96618.19;5044602;28;20059;-37
2021/10/03 02:34:26;;;;;;;6.95;4.20;;;18.30;59.50;;;18.34;49.13;96611.97;5045139;28;20055;-37
2021/10/03 02:36:54;;;;;;;5.55;3.20;;;18.30;59.40;;;18.37;49.25;96614.19;5043613;28;20354;-37
2021/10/03 02:39:22;;;;;;;4.20;3.30;;;18.30;59.20;;;18.36;48.98;96604.47;5044486;28;20053;-37
2021/10/03 02:41:50;;;;;;;6.53;3.92;;;18.30;59.20;;;18.37;49.05;96603.41;5043457;28;20075;-37
2021/10/03 02:44:18;;;;;;;10.48;4.28;;;18.30;59.30;;;18.35;48.93;96600.13;5043617;28;20044;-37
2021/10/03 02:46:46;;;;;;;4.40;3.42;;;18.30;59.20;;;18.34;48.87;96603.91;5043608;28;20053;-37
2021/10/03 02:49:14;;;;;;;4.18;3.78;;;18.30;59.10;;;18.34;48.87;96595.81;5046288;28;20048;-37
2021/10/03 02:51:42;;;;;;;6.68;4.03;;;18.30;58.90;;;18.36;48.94;96598.25;5044512;28;20059;-37
2021/10/03 02:54:10;;;;;;;5.78;3.95;;;18.30;58.80;;;18.34;48.77;96598.50;5044497;28;20356;-37
2021/10/03 02:56:38;;;;;;;6.38;3.35;;;18.30;58.90;;;18.30;48.79;96591.97;5046061;28;20064;-37
2021/10/03 02:59:06;;;;;;;4.20;3.65;;;18.20;58.90;;;18.29;48.60;96591.13;5045340;28;20045;-37
2021/10/03 03:01:34;;;;;;;4.13;3.17;;;18.20;58.60;;;18.26;48.34;96586.22;5045772;28;20273;-37
2021/10/03 03:04:02;;;;;;;4.32;3.30;;;18.20;58.30;;;18.27;48.20;96592.41;5044336;28;20260;-37
2021/10/03 03:06:30;;;;;;;5.00;4.15;;;18.20;58.10;;;18.28;48.25;96588.66;5044603;28;20083;-37
2021/10/03 03:08:57;;;;;;;5.88;3.33;;;18.30;57.90;;;18.28;48.13;96586.81;5045319;28;20059;-37
2021/10/03 03:11:25;;;;;;;4.72;3.50;;;18.20;57.80;;;18.29;47.80;96580.34;5045528;28;20057;-37
2021/10/03 03:13:53;;;;;;;5.97;3.10;;;18.30;57.70;;;18.31;47.68;96588.19;5044725;28;20248;-37
2021/10/03 03:16:21;;;;;;;4.13;3.25;;;18.30;57.30;;;18.30;47.32;96586.56;5044018;28;20051;-37
2021/10/03 03:18:49;;;;;;;3.08;2.67;;;18.20;57.00;;;18.28;47.02;96577.88;5044032;28;20045;-37
2021/10/03 03:21:17;;;;;;;3.42;3.13;;;18.20;56.50;;;18.29;46.97;96588.41;5045587;28;20061;-37
2021/10/03 03:23:45;;;;;;;4.40;2.83;;;18.20;56.40;;;18.25;46.71;96576.47;5043768;28;20045;-37
2021/10/03 03:26:14;;;;;;;4.60;2.88;;;18.30;56.00;;;18.29;46.42;96571.44;5043565;28;20051;-37
2021/10/03 03:28:42;;;;;;;4.97;2.83;;;18.30;55.70;;;18.30;46.25;96567.72;5044471;28;20064;-37
2021/10/03 03:31:09;;;;;;;5.18;2.90;;;18.30;55.50;;;18.33;46.26;96579.88;5045413;28;20239;-37
2021/10/03 03:33:38;;;;;;;3.50;2.80;;;18.40;55.30;;;18.32;45.81;96573.69;5044706;28;20053;-37
2021/10/03 03:36:06;;;;;;;3.13;2.60;;;18.40;54.90;;;18.35;45.84;96573.19;5044560;28;20041;-37
2021/10/03 03:38:36;;;;;;;3.42;2.90;;;18.40;54.80;;;18.36;45.82;96565.91;5044532;28;20355;-37
2021/10/03 03:41:06;;;;;;;6.03;2.78;;;18.40;54.70;;;18.36;45.77;96574.84;5046517;28;20060;-37
2021/10/03 03:43:34;;;;;;;2.85;2.35;;;18.40;54.70;;;18.37;45.66;96568.38;5044024;28;20064;-37
2021/10/03 03:46:02;;;;;;;4.43;2.53;;;18.40;54.60;;;18.37;45.61;96565.69;5043691;28;20053;-37
2021/10/03 03:48:30;;;;;;;3.47;2.88;;;18.40;54.40;;;18.38;45.33;96567.34;5047841;28;20061;-37
2021/10/03 03:50:58;;;;;;;3.70;2.90;;;18.40;54.20;;;18.33;45.11;96574.50;5048258;28;20056;-37
2021/10/03 03:53:26;;;;;;;4.22;2.65;;;18.40;53.80;;;18.35;45.43;96575.06;5048341;28;20056;-37
2021/10/03 03:55:54;;;;;;;2.67;2.20;;;18.40;54.10;;;18.34;45.36;96562.63;5048163;28;20297;-37
2021/10/03 03:58:21;;;;;;;3.70;2.53;;;18.40;54.20;;;18.33;45.26;96569.09;5048471;28;20663;-37
2021/10/03 04:00:49;;;;;;;3.63;2.70;;;18.40;53.90;;;18.33;45.18;96566.41;5048832;28;20724;-37
2021/10/03 04:03:17;;;;;;;3.65;3.15;;;18.40;53.90;;;18.33;45.31;96551.06;5047490;28;20044;-37
2021/10/03 04:05:45;;;;;;;4.18;2.30;;;18.40;54.10;;;18.33;45.42;96551.06;5046663;28;20049;-37
2021/10/03 04:08:13;;;;;;;4.20;2.58;;;18.40;54.20;;;18.33;45.22;96551.06;5046091;28;20053;-37
2021/10/03 04:10:41;;;;;;;3.92;2.78;;;18.30;54.10;;;18.29;44.96;96548.00;5046576;28;20057;-37
2021/10/03 04:13:09;;;;;;;3.55;2.88;;;18.30;53.90;;;18.33;45.16;96542.97;5047102;28;20041;-37
2021/10/03 04:15:37;;;;;;;4.80;2.53;;;18.30;54.00;;;18.30;45.13;96538.88;5048501;28;20049;-37
2021/10/03 04:18:04;;;;;;;5.10;2.85;;;18.30;53.80;;;18.32;44.88;96540.50;5047973;28;20048;-37
2021/10/03 04:20:32;;;;;;;3.50;2.65;;;18.30;53.90;;;18.32;44.70;96535.13;5047755;28;20060;-37
2021/10/03 04:23:00;;;;;;;4.88;2.88;;;18.30;53.50;;;18.32;44.86;96527.88;5047102;28;20061;-37
2021/10/03 04:25:28;;;;;;;3.20;2.60;;;18.30;53.60;;;18.37;44.96;96524.47;5046352;28;20067;-37
2021/10/03 04:27:56;;;;;;;4.60;2.85;;;18.40;53.50;;;18.38;44.76;96523.38;5047593;28;20065;-37
2021/10/03 04:30:24;;;;;;;3.45;2.30;;;18.40;53.40;;;18.40;44.82;96532.91;5047171;28;20293;-37
2021/10/03 04:32:53;;;;;;;3.90;2.70;;;18.40;53.40;;;18.41;44.73;96528.31;5046585;28;20347;-37
2021/10/03 04:35:21;;;;;;;4.95;2.90;;;18.40;53.00;;;18.41;44.57;96531.81;5048112;28;20063;-37
2021/10/03 04:37:49;;;;;;;3.55;3.08;;;18.40;53.10;;;18.40;44.37;96518.59;5048310;28;20377;-37
2021/10/03 04:40:16;;;;;;;3.53;2.47;;;18.40;53.10;;;18.39;44.65;96522.34;5047447;28;20075;-37
2021/10/03 04:42:47;;;;;;;2.95;2.30;;;18.40;53.50;;;18.37;44.52;96527.16;5046678;28;20255;-37
2021/10/03 04:45:16;;;;;;;3.13;2.38;;;18.40;53.40;;;18.39;44.64;96522.34;5046030;28;20055;-37
2021/10/03 04:47:45;;;;;;;3.65;2.55;;;18.40;53.40;;;18.41;44.71;96522.94;5046530;28;20351;-37
2021/10/03 04:50:14;;;;;;;4.00;2.70;;;18.40;53.20;;;18.43;44.63;96523.50;5046164;28;20150;-37
2021/10/03 04:52:43;;;;;;;4.47;2.45;;;18.40;53.40;;;18.44;44.59;96531.34;5047754;28;20047;-37
2021/10/03 04:55:12;;;;;;;3.45;2.47;;;18.40;53.40;;;18.45;44.48;96535.66;5046180;28;20244;-37
2021/10/03 04:57:40;;;;;;;4.35;2.85;;;18.50;53.10;;;18.45;44.27;96526.78;5047747;28;20228;-37
2021/10/03 05:00:09;;;;;;;2.90;2.28;;;18.40;52.90;;;18.42;44.22;96520.00;5047258;28;20052;-37
2021/10/03 05:02:37;;;;;;;4.85;2.78;;;18.40;52.50;;;18.44;44.40;96520.56;5047774;28;20447;-37
2021/10/03 05:05:06;;;;;;;3.15;2.40;;;18.40;53.10;;;18.45;44.49;96522.19;5047143;28;20056;-37
2021/10/03 05:07:34;;;;;;;3.50;2.55;;;18.40;53.20;;;18.45;44.25;96524.91;5047052;28;20053;-37
2021/10/03 05:10:03;;;;;;;2.25;2.05;;;18.40;52.90;;;18.43;44.05;96515.41;5046628;28;20059;-37
2021/10/03 05:12:31;;;;;;;2.80;2.40;;;18.40;52.70;;;18.45;44.07;96514.13;5047559;28;20061;-37
2021/10/03 05:14:59;;;;;;;4.13;2.88;;;18.50;52.60;;;18.45;43.90;96524.09;5046707;28;20079;-37
2021/10/03 05:17:27;;;;;;;3.38;2.55;;;18.50;52.40;;;18.44;43.78;96527.84;5047389;28;20261;-37
2021/10/03 05:19:55;;;;;;;3.80;2.92;;;18.50;52.20;;;18.45;43.72;96511.41;5048371;28;20047;-37
2021/10/03 05:22:24;;;;;;;3.15;2.50;;;18.50;52.30;;;18.47;43.58;96511.19;5045189;28;20048;-37
2021/10/03 05:24:53;;;;;;;8.10;2.78;;;18.50;52.40;;;18.47;43.95;96524.66;5046129;28;20060;-37
2021/10/03 05:27:21;;;;;;;3.55;2.65;;;18.50;52.60;;;18.45;43.96;96526.78;5047625;28;20056;-37
2021/10/03 05:29:48;;;;;;;3.88;2.70;;;18.40;52.60;;;18.42;43.95;96527.28;5046593;28;20090;-37
2021/10/03 05:32:16;;;;;;;4.45;2.58;;;18.40;52.60;;;18.42;44.06;96520.00;5047118;28;20045;-37
2021/10/03 05:34:44;;;;;;;3.78;2.60;;;18.40;52.60;;;18.45;43.97;96516.81;5044601;28;20358;-37
2021/10/03 05:37:12;;;;;;;3.20;2.70;;;18.40;52.70;;;18.46;44.13;96514.97;5044836;28;20240;-37
2021/10/03 05:39:40;;;;;;;4.13;2.80;;;18.40;52.70;;;18.47;44.13;96514.69;5046555;28;20083;-37
2021/10/03 05:42:08;;;;;;;3.55;2.60;;;18.50;52.80;;;18.49;44.17;96511.75;5046803;28;20055;-37
2021/10/03 05:44:36;;;;;;;3.20;2.47;;;18.50;52.70;;;18.50;44.06;96510.72;5045301;28;20053;-37
2021/10/03 05:47:04;;;;;;;5.50;3.03;;;18.50;52.80;;;18.49;44.13;96507.22;5045895;28;20267;-37
2021/10/03 05:49:32;;;;;;;3.33;2.55;;;18.50;52.90;;;18.49;44.24;96500.97;5046268;28;20060;-37
2021/10/03 05:51:59;;;;;;;3.08;2.55;;;18.50;52.90;;;18.50;44.34;96513.41;5045229;28;20385;-37
2021/10/03 05:54:27;;;;;;;3.65;2.65;;;18.50;53.10;;;18.49;44.17;96512.59;5047029;28;20053;-37
2021/10/03 05:56:55;;;;;;;8.50;2.75;;;18.50;53.00;;;18.49;44.47;96503.69;5044820;28;20387;-37
2021/10/03 05:59:23;;;;;;;2.80;2.20;;;18.50;53.20;;;18.52;44.24;96515.88;5045940;28;20053;-37
2021/10/03 06:01:51;;;;;;;3.42;2.45;;;18.50;53.00;;;18.52;44.43;96503.22;5044870;28;20057;-37
2021/10/03 06:04:19;;;;;;;3.75;2.67;;;18.60;53.10;;;18.55;44.39;96499.22;5044820;28;20384;-37
2021/10/03 06:06:47;;;;;;;3.50;2.85;;;18.60;53.10;;;18.56;44.44;96495.47;5045539;28;20056;-37
2021/10/03 06:09:14;;;;;;;5.30;2.83;;;18.60;53.10;;;18.58;44.60;96498.75;5045378;28;20356;-37
2021/10/03 06:11:42;;;;;;;3.33;2.80;;;18.60;53.30;;;18.58;44.60;96507.63;5061601;28;20049;-37
2021/10/03 06:14:10;;;;;;;3.58;2.60;;;18.60;53.40;;;18.61;44.66;96506.34;5043476;28;20060;-37
2021/10/03 06:16:42;;;;;;;4.60;2.60;;;18.60;53.30;;;18.62;44.59;96507.97;5045966;28;20061;-37
2021/10/03 06:19:11;;;;;;;4.07;2.75;;;18.70;53.20;;;18.66;44.41;96509.13;5045516;28;20236;-37
2021/10/03 06:21:41;;;;;;;3.60;2.95;;;18.80;53.00;;;18.67;44.29;96506.22;5045633;28;20053;-37
2021/10/03 06:24:11;;;;;;;4.20;3.35;;;18.80;52.70;;;18.68;44.18;96510.53;5045249;28;20049;-37
2021/10/03 06:26:39;;;;;;;3.45;2.65;;;18.70;52.50;;;18.70;44.07;96502.19;5045724;28;20065;-37
2021/10/03 06:29:07;;;;;;;3.50;2.33;;;18.80;52.50;;;18.73;43.80;96501.72;5044222;28;20057;-37
2021/10/03 06:31:35;;;;;;;3.90;2.40;;;18.80;52.10;;;18.78;43.72;96501.81;5046835;28;20048;-37
2021/10/03 06:34:02;;;;;;;4.00;2.83;;;18.80;52.10;;;18.82;43.84;96499.50;5045179;28;20041;-37
2021/10/03 06:36:30;;;;;;;5.88;3.38;;;18.90;51.90;;;18.84;43.91;96502.75;5044799;28;20363;-37
2021/10/03 06:38:58;;;;;;;4.93;3.08;;;18.90;52.10;;;18.85;43.59;96502.53;5044752;28;20054;-37
2021/10/03 06:41:26;;;;;;;4.05;3.00;;;18.90;52.00;;;18.87;43.24;96516.56;5046082;28;20251;-37
2021/10/03 06:43:54;;;;;;;3.13;2.47;;;18.90;51.50;;;18.85;43.08;96517.88;5042874;28;20048;-37
2021/10/03 06:46:22;;;;;;;4.32;3.35;;;19.00;51.20;;;18.91;43.23;96522.31;5044742;28;20053;-37
2021/10/03 06:48:50;;;;;;;3.83;3.10;;;19.00;51.50;;;18.92;43.42;96515.88;5045972;28;20371;-37
2021/10/03 06:51:18;;;;;;;4.95;2.90;;;19.00;51.50;;;18.95;43.54;96519.97;5044120;28;20075;-37
2021/10/03 06:53:45;;;;;;;4.30;3.15;;;19.10;51.60;;;18.98;43.55;96525.69;5045090;28;20053;-37
2021/10/03 06:56:13;;;;;;;6.35;3.15;;;19.10;51.90;;;19.00;43.64;96526.25;5045162;28;20664;-37
2021/10/03 06:58:41;;;;;;;4.35;3.53;;;19.10;52.00;;;19.02;43.87;96534.94;5045958;28;20445;-37
2021/10/03 07:01:09;;;;;;;5.35;3.35;;;19.20;52.10;;;19.04;43.73;96530.09;5044721;28;20053;-37
2021/10/03 07:03:37;;;;;;;5.72;4.30;;;19.10;52.10;;;19.06;43.89;96535.25;5042233;28;20063;-37
2021/10/03 07:06:07;;;;;;;5.68;3.58;;;19.20;52.40;;;19.06;43.82;96538.78;5044111;28;20239;-37
2021/10/03 07:08:34;;;;;;;7.32;5.40;;;19.10;52.20;;;19.06;44.00;96541.47;5043240;28;20056;-37
2021/10/03 07:11:04;;;;;;;6.70;4.45;;;19.20;52.60;;;19.06;44.07;96536.06;5043958;28;20068;-37
2021/10/03 07:13:31;;;;;;;4.15;3.65;;;19.20;52.70;;;19.05;44.15;96547.09;5045070;28;20053;-37
2021/10/03 07:15:59;;;;;;;5.10;3.83;;;19.10;52.80;;;19.05;44.21;96545.22;5043444;28;20048;-37
2021/10/03 07:18:28;;;;;;;5.50;3.75;;;19.20;52.80;;;19.07;44.48;96534.19;5043805;28;20071;-37
2021/10/03 07:20:55;;;;;;;4.85;3.33;;;19.10;53.00;;;19.04;44.27;96551.69;5044525;28;20053;-37
2021/10/03 07:23:26;;;;;;;4.60;2.85;;;19.10;53.00;;;19.02;43.98;96551.09;5045262;28;20524;-37
2021/10/03 07:25:54;;;;;;;3.97;2.53;;;19.20;52.40;;;19.07;44.14;96547.69;5047201;28;20061;-37
2021/10/03 07:28:24;;;;;;;3.45;2.85;;;19.20;52.60;;;19.11;44.07;96548.81;5046944;28;20049;-37
2021/10/03 07:30:52;;;;;;;4.30;2.70;;;19.20;52.50;;;19.10;43.97;96560.69;5048671;28;20530;-37
2021/10/03 07:33:20;;;;;;;3.03;2.50;;;19.20;52.40;;;19.12;43.93;96552.38;5047831;28;20044;-37
2021/10/03 07:35:48;;;;;;;3.55;2.80;;;19.20;52.40;;;19.12;43.94;96552.38;5045634;28;20370;-37
2021/10/03 07:38:16;;;;;;;4.88;3.95;;;19.20;52.60;;;19.11;44.29;96554.22;5048851;28;20053;-37
2021/10/03 07:40:44;;;;;;;4.07;3.40;;;19.20;52.70;;;19.11;44.37;96554.22;5048147;28;20363;-37
2021/10/03 07:43:12;;;;;;;4.25;3.45;;;19.20;52.90;;;19.13;44.67;96556.69;5047322;28;20094;-37
2021/10/03 07:45:41;;;;;;;3.78;3.08;;;19.20;53.20;;;19.13;44.65;96567.47;5046465;28;20232;-36
2021/10/03 07:48:09;;;;;;;4.90;3.40;;;19.20;53.40;;;19.13;44.62;96552.09;5045673;28;20071;-36
2021/10/03 07:50:37;;;;;;;4.97;3.30;;;19.20;53.20;;;19.15;44.85;96547.28;5045086;28;20059;-36
2021/10/03 07:53:04;;;;;;;5.25;3.97;;;19.30;53.50;;;19.19;44.93;96558.41;5047283;28;20401;-36
2021/10/03 07:55:32;;;;;;;3.88;3.30;;;19.30;53.70;;;19.16;44.53;96553.50;5048043;28;20059;-36
2021/10/03 07:58:05;;;;;;;6.50;4.15;;;19.20;53.40;;;19.17;44.71;96545.16;5047288;28;20225;-36
2021/10/03 08:00:35;;;;;;;6.30;4.05;;;19.20;53.60;;;19.18;45.01;96544.09;5044475;28;20041;-36
2021/10/03 08:03:09;;;;;;;4.07;3.13;;;19.20;53.60;;;19.21;44.72;96549.03;5046112;28;20055;-36
2021/10/03 08:05:37;;;;;;;6.07;3.85;;;19.30;53.60;;;19.22;44.71;96539.84;5047110;28;20055;-36
2021/10/03 08:08:06;;;;;;;6.13;4.70;;;19.30;53.40;;;19.24;44.80;96536.94;5046680;28;20067;-35
2021/10/03 08:10:34;;;;;;;5.15;3.97;;;19.40;53.50;;;19.27;45.04;96534.56;5046667;28;20063;-36
2021/10/03 08:13:02;;;;;;;5.20;3.78;;;19.40;53.70;;;19.29;45.23;96539.72;5046486;28;20083;-36
2021/10/03 08:15:30;;;;;;;5.22;4.25;;;19.40;54.00;;;19.31;45.06;96531.34;5044757;28;20324;-35
2021/10/03 08:17:57;;;;;;;6.47;4.13;;;19.40;53.90;;;19.33;45.21;96542.72;5044769;28;20266;-35
2021/10/03 08:20:26;;;;;;;4.72;3.38;;;19.40;54.00;;;19.34;45.24;96542.47;5045705;28;20052;-36
2021/10/03 08:22:54;;;;;;;5.10;3.72;;;19.40;54.10;;;19.35;45.17;96548.69;5044095;28;20040;-35
2021/10/03 08:25:22;;;;;;;3.90;3.00;;;19.40;54.30;;;19.35;45.45;96540.59;5046331;28;20057;-35
2021/10/03 08:27:50;;;;;;;3.72;3.25;;;19.40;54.40;;;19.37;45.44;96552.00;5048217;28;20264;-35
2021/10/03 08:30:19;;;;;;;6.53;4.10;;;19.40;54.60;;;19.34;45.50;96547.88;5047532;28;20076;-36
2021/10/03 08:32:47;;;;;;;4.25;2.97;;;19.40;54.80;;;19.35;45.69;96551.38;5046898;28;20047;-36
2021/10/03 08:35:15;;;;;;;3.85;3.10;;;19.40;54.70;;;19.37;45.54;96560.09;5045335;28;20246;-36
2021/10/03 08:37:44;;;;;;;4.50;3.22;;;19.40;54.60;;;19.38;45.71;96546.34;5048097;28;20048;-36
2021/10/03 08:40:13;;;;;;;3.65;2.90;;;19.50;55.00;;;19.40;45.87;96546.09;5046377;28;20358;-36
2021/10/03 08:42:42;;;;;;;5.07;3.17;;;19.50;55.00;;;19.43;45.88;96553.72;5046004;28;20059;-36
2021/10/03 08:45:10;;;;;;;4.20;3.03;;;19.50;55.20;;;19.48;46.05;96564.56;5045367;28;20053;-36
2021/10/03 08:47:41;;;;;;;4.18;2.97;;;19.60;55.10;;;19.50;46.15;96554.34;5046704;28;20078;-36
2021/10/03 08:50:14;;;;;;;4.05;3.50;;;19.60;55.30;;;19.51;46.11;96558.69;5048365;28;20049;-36
2021/10/03 08:52:44;;;;;;;4.32;3.42;;;19.60;55.40;;;19.53;46.20;96572.78;5045990;28;20049;-36
2021/10/03 08:55:15;;;;;;;3.80;2.97;;;19.60;55.50;;;19.54;46.42;96560.09;5045897;28;20064;-36
2021/10/03 08:57:44;;;;;;;3.75;2.80;;;19.60;55.60;;;19.53;46.57;96561.16;5044725;28;20045;-35
2021/10/03 09:00:23;;;;;;;3.80;3.00;;;19.60;55.70;;;19.53;46.64;96564.66;5047483;28;20295;-35
2021/10/03 09:03:04;;;;;;;5.97;3.70;;;19.60;56.40;;;19.55;46.78;96572.53;5045639;28;20334;-35
2021/10/03 09:05:36;;;;;;;7.45;3.90;;;19.60;56.60;;;19.52;46.86;96571.13;5047103;28;20062;-36
2021/10/03 09:08:10;;;;;;;4.93;3.17;;;19.50;56.70;;;19.51;46.89;96580.28;5043859;28;20053;-35
2021/10/03 09:11:07;;;;;;;5.80;3.97;;;19.50;56.80;;;19.48;47.12;96568.13;5046689;28;20059;-35
2021/10/03 09:13:35;;;;;;;4.25;3.40;;;19.50;57.30;;;19.50;46.98;96556.25;5046708;28;20451;-35
2021/10/03 09:16:32;;;;;;;4.78;3.25;;;19.50;56.90;;;19.51;47.56;96557.88;5044918;28;20032;-35
2021/10/03 09:19:10;;;;;;;5.13;3.17;;;19.50;57.10;;;19.51;47.50;96553.31;5045555;28;20061;-35
2021/10/03 09:21:41;;;;;;;6.00;3.20;;;19.60;57.10;;;19.54;47.22;96546.59;5047226;28;20068;-35
2021/10/03 09:24:20;;;;;;;3.83;3.10;;;19.60;56.90;;;19.55;47.25;96557.16;5045490;28;20210;-35
2021/10/03 09:27:03;;;;;;;5.10;2.90;;;19.60;57.00;;;19.58;47.08;96570.16;5045695;28;20389;-35
2021/10/03 09:29:36;;;;;;;3.83;2.90;;;19.70;56.70;;;19.60;47.01;96559.09;5046527;28;20057;-35
2021/10/03 09:32:16;;;;;;;4.88;3.20;;;19.70;56.70;;;19.61;47.08;96558.03;5046082;28;20057;-35
2021/10/03 09:34:50;;;;;;;3.83;3.08;;;19.70;56.40;;;19.64;47.23;96561.09;5031388;28;20053;-35
2021/10/03 09:37:30;;;;;;;5.90;3.65;;;19.70;57.00;;;19.65;47.73;96553.78;5044662;28;20565;-35
2021/10/03 09:40:07;;;;;;;3.75;2.85;;;19.80;57.50;;;19.65;47.39;96560.00;5046207;28;20059;-35
2021/10/03 09:42:36;;;;;;;3.90;2.72;;;19.70;57.10;;;19.66;47.36;96564.34;5045355;28;20052;-35
2021/10/03 09:45:13;;;;;;;5.68;3.22;;;19.80;56.90;;;19.69;47.69;96571.13;5045073;28;20060;-36
2021/10/03 09:47:45;;;;;;;3.88;3.35;;;19.80;57.50;;;19.72;47.61;96577.97;5044615;28;20048;-36
2021/10/03 09:50:15;;;;;;;5.15;3.67;;;19.80;57.10;;;19.74;47.54;96576.66;5046353;28;20078;-36
2021/10/03 09:52:43;;;;;;;4.78;4.22;;;19.80;57.20;;;19.74;47.73;96579.34;5045120;28;20585;-36
2021/10/03 09:55:17;;;;;;;6.65;3.85;;;19.80;57.50;;;19.74;48.30;96592.84;5046060;28;20060;-35
2021/10/03 09:57:45;;;;;;;;;;;19.80;57.90;;;19.71;48.01;96584.41;5060618;28;20251;-35
2021/10/03 10:00:16;;;;;;;5.38;3.88;;;19.80;59.10;;;19.77;47.88;96594.25;5046340;28;19917;-36
2021/10/03 10:02:46;;;;;;;3.65;3.08;;;19.70;58.10;;;19.78;47.98;96587.78;5043045;28;20247;-36
2021/10/03 10:05:26;;;;;;;5.38;3.83;;;19.80;57.70;;;19.80;48.08;96597.28;5045084;28;20043;-37
2021/10/03 10:07:58;;;;;;;4.57;3.00;;;19.90;58.70;;;19.82;48.29;96594.34;5045637;28;20049;-36
2021/10/03 10:10:31;;;;;;;4.05;3.30;;;19.80;58.30;;;19.82;48.58;96589.75;5045473;28;20308;-36
2021/10/03 10:13:10;;;;;;;4.35;3.75;;;19.80;58.60;;;19.84;48.68;96590.31;5045072;28;20052;-36
2021/10/03 10:15:39;;;;;;;3.92;3.08;;;19.90;58.80;;;19.85;49.05;96577.63;5060558;28;20059;-36
2021/10/03 10:18:25;;;;;;;7.18;3.17;;;19.80;59.00;;;19.85;49.10;96583.03;5043790;28;20049;-36
2021/10/03 10:20:54;;;;;;;8.05;3.20;;;19.90;59.90;;;19.85;49.00;96575.75;5045441;28;20514;-36
2021/10/03 10:23:30;;;;;;;5.90;3.33;;;19.90;58.90;;;19.88;48.98;96570.94;5057277;28;20247;-36
2021/10/03 10:26:00;;;;;;;6.97;3.33;;;19.90;59.60;;;19.90;48.67;96576.91;5042328;28;20057;-36
2021/10/03 10:28:27;;;;;;;3.50;2.72;;;19.90;58.90;;;19.93;48.80;96574.53;5043819;28;20404;-36
2021/10/03 10:31:16;;;;;;;5.88;3.45;;;20.00;58.70;;;19.97;48.32;96570.25;5043457;28;20439;-36